sensor_id;sensor_type;location;lat;lon;timestamp;pressure;altitude;pressure_sealevel;temperature;humidity
21359;BME280;13506;50.852;20.632;2023-03-18T00:01:17;98631.78;;;0.07;58.88
21359;BME280;13506;50.852;20.632;2023-03-18T00:03:47;98639.59;;;0.02;58.89
21359;BME280;13506;50.852;20.632;2023-03-18T00:06:18;98632.03;;;-0.04;59.13
21359;BME280;13506;50.852;20.632;2023-03-18T00:08:48;98635.47;;;-0.05;58.96
21359;BME280;13506;50.852;20.632;2023-03-18T00:11:18;98631.19;;;-0.05;59.21
21359;BME280;13506;50.852;20.632;2023-03-18T00:13:47;98627.13;;;-0.13;59.47
21359;BME280;13506;50.852;20.632;2023-03-18T00:16:17;98620.13;;;-0.08;59.75
21359;BME280;13506;50.852;20.632;2023-03-18T00:18:46;98620.22;;;-0.11;59.06
21359;BME280;13506;50.852;20.632;2023-03-18T00:21:14;98621.72;;;-0.03;59.06
21359;BME280;13506;50.852;20.632;2023-03-18T00:23:43;98620.84;;;-0.03;59.16
21359;BME280;13506;50.852;20.632;2023-03-18T00:26:16;98616.38;;;0.05;58.39
21359;BME280;13506;50.852;20.632;2023-03-18T00:28:44;98606.19;;;0.02;59.13
21359;BME280;13506;50.852;20.632;2023-03-18T00:31:11;98606.44;;;-0.09;58.43
21359;BME280;13506;50.852;20.632;2023-03-18T00:33:43;98605.34;;;0.02;59.06
21359;BME280;13506;50.852;20.632;2023-03-18T00:36:14;98591.03;;;-0.10;58.56
21359;BME280;13506;50.852;20.632;2023-03-18T00:38:45;98600.78;;;-0.23;58.69
21359;BME280;13506;50.852;20.632;2023-03-18T00:41:17;98585.34;;;-0.21;59.17
21359;BME280;13506;50.852;20.632;2023-03-18T00:43:47;98582.03;;;-0.27;59.75
21359;BME280;13506;50.852;20.632;2023-03-18T00:46:21;98580.19;;;-0.21;59.32
21359;BME280;13506;50.852;20.632;2023-03-18T00:48:52;98578.56;;;-0.24;59.34
21359;BME280;13506;50.852;20.632;2023-03-18T00:51:22;98578.75;;;-0.33;59.84
21359;BME280;13506;50.852;20.632;2023-03-18T00:53:53;98577.94;;;-0.35;59.76
21359;BME280;13506;50.852;20.632;2023-03-18T00:56:25;98577.81;;;-0.29;59.85
21359;BME280;13506;50.852;20.632;2023-03-18T00:58:54;98569.16;;;-0.27;60.28
21359;BME280;13506;50.852;20.632;2023-03-18T01:01:24;98563.22;;;-0.29;59.33
21359;BME280;13506;50.852;20.632;2023-03-18T01:03:54;98562.25;;;-0.25;59.22
21359;BME280;13506;50.852;20.632;2023-03-18T01:06:25;98566.88;;;-0.37;59.88
21359;BME280;13506;50.852;20.632;2023-03-18T01:08:55;98563.97;;;-0.24;59.77
21359;BME280;13506;50.852;20.632;2023-03-18T01:11:25;98570.78;;;-0.22;59.49
21359;BME280;13506;50.852;20.632;2023-03-18T01:13:53;98570.13;;;-0.31;59.91
21359;BME280;13506;50.852;20.632;2023-03-18T01:16:23;98561.56;;;-0.31;59.37
21359;BME280;13506;50.852;20.632;2023-03-18T01:18:52;98568.56;;;-0.36;59.76
21359;BME280;13506;50.852;20.632;2023-03-18T01:21:20;98564.38;;;-0.40;60.11
21359;BME280;13506;50.852;20.632;2023-03-18T01:23:53;98552.66;;;-0.52;60.31
21359;BME280;13506;50.852;20.632;2023-03-18T01:26:21;98564.56;;;-0.48;60.43
21359;BME280;13506;50.852;20.632;2023-03-18T01:28:53;98556.16;;;-0.55;60.17
21359;BME280;13506;50.852;20.632;2023-03-18T01:31:22;98547.63;;;-0.55;59.97
21359;BME280;13506;50.852;20.632;2023-03-18T01:33:53;98543.47;;;-0.61;60.49
21359;BME280;13506;50.852;20.632;2023-03-18T01:36:22;98545.06;;;-0.57;60.01
21359;BME280;13506;50.852;20.632;2023-03-18T01:39:02;98539.16;;;-0.60;60.08
21359;BME280;13506;50.852;20.632;2023-03-18T01:41:32;98534.94;;;-0.63;60.87
21359;BME280;13506;50.852;20.632;2023-03-18T01:44:02;98533.16;;;-0.59;60.26
21359;BME280;13506;50.852;20.632;2023-03-18T01:46:39;98528.72;;;-0.54;60.66
21359;BME280;13506;50.852;20.632;2023-03-18T01:49:11;98519.28;;;-0.54;60.57
21359;BME280;13506;50.852;20.632;2023-03-18T01:51:43;98522.59;;;-0.49;59.86
21359;BME280;13506;50.852;20.632;2023-03-18T01:54:13;98523.69;;;-0.57;60.32
21359;BME280;13506;50.852;20.632;2023-03-18T01:56:46;98515.53;;;-0.75;60.86
21359;BME280;13506;50.852;20.632;2023-03-18T01:59:16;98522.22;;;-0.68;60.04
21359;BME280;13506;50.852;20.632;2023-03-18T02:01:49;98520.31;;;-0.59;60.32
21359;BME280;13506;50.852;20.632;2023-03-18T02:04:24;98526.44;;;-0.67;60.20
21359;BME280;13506;50.852;20.632;2023-03-18T02:06:54;98520.31;;;-0.59;60.14
21359;BME280;13506;50.852;20.632;2023-03-18T02:09:24;98528.13;;;-0.64;60.72
21359;BME280;13506;50.852;20.632;2023-03-18T02:11:53;98523.88;;;-0.67;60.69
21359;BME280;13506;50.852;20.632;2023-03-18T02:14:24;98530.72;;;-0.66;60.78
21359;BME280;13506;50.852;20.632;2023-03-18T02:16:59;98531.69;;;-0.70;60.16
21359;BME280;13506;50.852;20.632;2023-03-18T02:19:41;98534.22;;;-0.68;60.42
21359;BME280;13506;50.852;20.632;2023-03-18T02:22:26;98520.50;;;-0.69;60.85
21359;BME280;13506;50.852;20.632;2023-03-18T02:25:08;98532.41;;;-0.65;60.57
21359;BME280;13506;50.852;20.632;2023-03-18T02:27:43;98524.75;;;-0.66;60.62
21359;BME280;13506;50.852;20.632;2023-03-18T02:30:18;98530.84;;;-0.70;60.72
21359;BME280;13506;50.852;20.632;2023-03-18T02:32:51;98535.06;;;-0.68;60.96
21359;BME280;13506;50.852;20.632;2023-03-18T02:35:20;98521.22;;;-0.62;60.68
21359;BME280;13506;50.852;20.632;2023-03-18T02:37:50;98516.25;;;-0.70;61.33
21359;BME280;13506;50.852;20.632;2023-03-18T02:40:19;98516.50;;;-0.79;60.94
21359;BME280;13506;50.852;20.632;2023-03-18T02:42:51;98518.34;;;-0.86;62.03
21359;BME280;13506;50.852;20.632;2023-03-18T02:45:30;98515.75;;;-0.84;62.18
21359;BME280;13506;50.852;20.632;2023-03-18T02:48:12;98521.00;;;-0.90;62.27
21359;BME280;13506;50.852;20.632;2023-03-18T02:50:44;98533.13;;;-0.95;61.28
21359;BME280;13506;50.852;20.632;2023-03-18T02:53:13;98520.97;;;-0.87;62.33
21359;BME280;13506;50.852;20.632;2023-03-18T02:55:42;98512.22;;;-0.80;62.10
21359;BME280;13506;50.852;20.632;2023-03-18T02:58:12;98524.63;;;-0.99;61.74
21359;BME280;13506;50.852;20.632;2023-03-18T03:00:41;98514.47;;;-1.03;62.60
21359;BME280;13506;50.852;20.632;2023-03-18T03:03:09;98515.03;;;-0.91;62.18
21359;BME280;13506;50.852;20.632;2023-03-18T03:05:37;98523.00;;;-1.01;62.93
21359;BME280;13506;50.852;20.632;2023-03-18T03:08:05;98529.00;;;-1.02;62.27
21359;BME280;13506;50.852;20.632;2023-03-18T03:10:38;98514.56;;;-1.07;63.11
21359;BME280;13506;50.852;20.632;2023-03-18T03:13:07;98518.84;;;-1.07;63.50
21359;BME280;13506;50.852;20.632;2023-03-18T03:15:37;98516.38;;;-1.12;62.48
21359;BME280;13506;50.852;20.632;2023-03-18T03:18:06;98528.25;;;-1.08;63.03
21359;BME280;13506;50.852;20.632;2023-03-18T03:20:36;98511.38;;;-1.18;63.34
21359;BME280;13506;50.852;20.632;2023-03-18T03:23:07;98525.81;;;-1.14;62.93
21359;BME280;13506;50.852;20.632;2023-03-18T03:25:36;98520.59;;;-1.09;63.26
21359;BME280;13506;50.852;20.632;2023-03-18T03:28:05;98524.88;;;-1.10;63.59
21359;BME280;13506;50.852;20.632;2023-03-18T03:30:33;98521.78;;;-1.24;63.49
21359;BME280;13506;50.852;20.632;2023-03-18T03:33:04;98524.41;;;-1.27;63.71
21359;BME280;13506;50.852;20.632;2023-03-18T03:35:32;98521.72;;;-1.21;63.56
21359;BME280;13506;50.852;20.632;2023-03-18T03:38:00;98513.38;;;-1.32;63.57
21359;BME280;13506;50.852;20.632;2023-03-18T03:40:29;98516.63;;;-1.24;63.58
21359;BME280;13506;50.852;20.632;2023-03-18T03:42:57;98519.19;;;-1.22;63.92
21359;BME280;13506;50.852;20.632;2023-03-18T03:45:25;98515.31;;;-1.40;64.64
21359;BME280;13506;50.852;20.632;2023-03-18T03:48:05;98509.16;;;-1.35;64.26
21359;BME280;13506;50.852;20.632;2023-03-18T03:50:33;98507.84;;;-1.14;63.58
21359;BME280;13506;50.852;20.632;2023-03-18T03:53:04;98505.69;;;-1.32;63.77
21359;BME280;13506;50.852;20.632;2023-03-18T03:55:33;98507.94;;;-1.17;63.75
21359;BME280;13506;50.852;20.632;2023-03-18T03:58:02;98509.28;;;-1.39;64.53
21359;BME280;13506;50.852;20.632;2023-03-18T04:00:31;98498.88;;;-1.33;64.26
21359;BME280;13506;50.852;20.632;2023-03-18T04:02:59;98499.91;;;-1.40;64.58
21359;BME280;13506;50.852;20.632;2023-03-18T04:05:29;98506.72;;;-1.39;64.95
21359;BME280;13506;50.852;20.632;2023-03-18T04:07:59;98510.06;;;-1.36;64.65
21359;BME280;13506;50.852;20.632;2023-03-18T04:10:37;98517.00;;;-1.41;64.98
21359;BME280;13506;50.852;20.632;2023-03-18T04:13:08;98506.13;;;-1.52;65.20
21359;BME280;13506;50.852;20.632;2023-03-18T04:15:36;98513.69;;;-1.44;65.25
21359;BME280;13506;50.852;20.632;2023-03-18T04:18:09;98505.28;;;-1.53;64.86
21359;BME280;13506;50.852;20.632;2023-03-18T04:20:39;98510.44;;;-1.54;65.52
21359;BME280;13506;50.852;20.632;2023-03-18T04:23:17;98502.53;;;-1.43;64.86
21359;BME280;13506;50.852;20.632;2023-03-18T04:25:45;98507.16;;;-1.61;65.06
21359;BME280;13506;50.852;20.632;2023-03-18T04:28:15;98507.25;;;-1.65;65.45
21359;BME280;13506;50.852;20.632;2023-03-18T04:30:46;98508.84;;;-1.60;66.13
21359;BME280;13506;50.852;20.632;2023-03-18T04:33:17;98509.53;;;-1.52;65.27
21359;BME280;13506;50.852;20.632;2023-03-18T04:35:47;98499.31;;;-1.53;64.93
21359;BME280;13506;50.852;20.632;2023-03-18T04:38:17;98513.81;;;-1.51;65.50
21359;BME280;13506;50.852;20.632;2023-03-18T04:40:46;98504.59;;;-1.61;65.18
21359;BME280;13506;50.852;20.632;2023-03-18T04:43:14;98508.81;;;-1.58;65.87
21359;BME280;13506;50.852;20.632;2023-03-18T04:45:43;98513.94;;;-1.58;64.97
21359;BME280;13506;50.852;20.632;2023-03-18T04:48:12;98514.84;;;-1.61;65.16
21359;BME280;13506;50.852;20.632;2023-03-18T04:50:41;98518.34;;;-1.65;66.17
21359;BME280;13506;50.852;20.632;2023-03-18T04:53:16;98513.22;;;-1.63;66.08
21359;BME280;13506;50.852;20.632;2023-03-18T04:55:47;98525.97;;;-1.60;65.09
21359;BME280;13506;50.852;20.632;2023-03-18T04:58:16;98522.56;;;-1.62;65.86
21359;BME280;13506;50.852;20.632;2023-03-18T05:00:55;98519.09;;;-1.60;65.35
21359;BME280;13506;50.852;20.632;2023-03-18T05:03:30;98515.47;;;-1.50;65.22
21359;BME280;13506;50.852;20.632;2023-03-18T05:05:58;98513.72;;;-1.48;64.71
21359;BME280;13506;50.852;20.632;2023-03-18T05:08:38;98513.81;;;-1.51;64.65
21359;BME280;13506;50.852;20.632;2023-03-18T05:11:06;98505.09;;;-1.45;64.64
21359;BME280;13506;50.852;20.632;2023-03-18T05:13:36;98516.13;;;-1.40;64.50
21359;BME280;13506;50.852;20.632;2023-03-18T05:16:07;98505.03;;;-1.40;64.67
21359;BME280;13506;50.852;20.632;2023-03-18T05:18:36;98509.97;;;-1.31;64.10
21359;BME280;13506;50.852;20.632;2023-03-18T05:21:05;98528.53;;;-1.20;63.87
21359;BME280;13506;50.852;20.632;2023-03-18T05:23:36;98521.00;;;-1.28;63.43
21359;BME280;13506;50.852;20.632;2023-03-18T05:26:05;98516.94;;;-0.99;62.86
21359;BME280;13506;50.852;20.632;2023-03-18T05:28:34;98524.63;;;-0.97;62.04
21359;BME280;13506;50.852;20.632;2023-03-18T05:31:20;98521.28;;;-1.02;62.00
21359;BME280;13506;50.852;20.632;2023-03-18T05:33:49;98523.28;;;-0.76;61.23
21359;BME280;13506;50.852;20.632;2023-03-18T05:36:18;98511.22;;;-0.73;61.93
21359;BME280;13506;50.852;20.632;2023-03-18T05:38:59;98511.84;;;-0.65;60.92
21359;BME280;13506;50.852;20.632;2023-03-18T05:41:28;98514.16;;;-0.54;60.75
21359;BME280;13506;50.852;20.632;2023-03-18T05:43:57;98518.31;;;-0.48;59.50
21359;BME280;13506;50.852;20.632;2023-03-18T05:46:26;98513.50;;;-0.28;58.87
21359;BME280;13506;50.852;20.632;2023-03-18T05:49:04;98512.41;;;-0.17;58.61
21359;BME280;13506;50.852;20.632;2023-03-18T05:51:42;98507.09;;;-0.11;58.94
21359;BME280;13506;50.852;20.632;2023-03-18T05:54:16;98505.88;;;0.02;57.96
21359;BME280;13506;50.852;20.632;2023-03-18T05:56:45;98523.25;;;0.25;57.28
21359;BME280;13506;50.852;20.632;2023-03-18T05:59:14;98509.09;;;0.10;57.25
21359;BME280;13506;50.852;20.632;2023-03-18T06:01:46;98512.03;;;0.57;56.25
21359;BME280;13506;50.852;20.632;2023-03-18T06:04:15;98519.13;;;0.49;55.93
21359;BME280;13506;50.852;20.632;2023-03-18T06:06:45;98514.34;;;0.37;55.94
21359;BME280;13506;50.852;20.632;2023-03-18T06:09:16;98517.97;;;0.89;55.26
21359;BME280;13506;50.852;20.632;2023-03-18T06:11:45;98524.69;;;0.65;54.75
21359;BME280;13506;50.852;20.632;2023-03-18T06:14:14;98525.38;;;0.72;54.81
21359;BME280;13506;50.852;20.632;2023-03-18T06:16:42;98527.53;;;1.14;54.31
21359;BME280;13506;50.852;20.632;2023-03-18T06:19:12;98513.84;;;1.38;53.16
21359;BME280;13506;50.852;20.632;2023-03-18T06:21:41;98525.44;;;1.25;52.76
21359;BME280;13506;50.852;20.632;2023-03-18T06:24:09;98519.78;;;1.40;53.28
21359;BME280;13506;50.852;20.632;2023-03-18T06:26:40;98522.09;;;1.50;52.81
21359;BME280;13506;50.852;20.632;2023-03-18T06:29:09;98531.06;;;1.65;52.61
21359;BME280;13506;50.852;20.632;2023-03-18T06:31:38;98533.88;;;1.84;52.15
21359;BME280;13506;50.852;20.632;2023-03-18T06:34:09;98532.91;;;2.11;51.07
21359;BME280;13506;50.852;20.632;2023-03-18T06:36:38;98527.84;;;2.08;50.63
21359;BME280;13506;50.852;20.632;2023-03-18T06:39:12;98531.34;;;2.07;50.83
21359;BME280;13506;50.852;20.632;2023-03-18T06:41:43;98540.16;;;2.25;50.17
21359;BME280;13506;50.852;20.632;2023-03-18T06:44:24;98536.09;;;2.43;49.97
21359;BME280;13506;50.852;20.632;2023-03-18T06:46:56;98532.72;;;2.41;49.38
21359;BME280;13506;50.852;20.632;2023-03-18T06:49:25;98551.97;;;2.07;50.54
21359;BME280;13506;50.852;20.632;2023-03-18T06:52:00;98537.53;;;2.27;50.04
21359;BME280;13506;50.852;20.632;2023-03-18T06:54:29;98537.66;;;2.24;50.01
21359;BME280;13506;50.852;20.632;2023-03-18T06:57:02;98529.66;;;2.55;49.59
21359;BME280;13506;50.852;20.632;2023-03-18T06:59:30;98530.84;;;2.46;49.77
21359;BME280;13506;50.852;20.632;2023-03-18T07:02:00;98520.28;;;2.76;49.65
21359;BME280;13506;50.852;20.632;2023-03-18T07:04:29;98535.88;;;2.96;48.82
21359;BME280;13506;50.852;20.632;2023-03-18T07:06:57;98539.22;;;3.20;48.07
21359;BME280;13506;50.852;20.632;2023-03-18T07:09:25;98538.56;;;3.37;47.56
21359;BME280;13506;50.852;20.632;2023-03-18T07:11:56;98535.81;;;3.20;48.06
21359;BME280;13506;50.852;20.632;2023-03-18T07:14:26;98545.19;;;3.00;48.05
21359;BME280;13506;50.852;20.632;2023-03-18T07:16:55;98535.97;;;3.37;48.11
21359;BME280;13506;50.852;20.632;2023-03-18T07:19:23;98544.09;;;3.28;47.76
21359;BME280;13506;50.852;20.632;2023-03-18T07:21:51;98546.25;;;3.39;47.78
21359;BME280;13506;50.852;20.632;2023-03-18T07:24:19;98546.63;;;3.52;47.31
21359;BME280;13506;50.852;20.632;2023-03-18T07:26:48;98537.91;;;3.75;46.77
21359;BME280;13506;50.852;20.632;2023-03-18T07:29:17;98546.28;;;4.02;46.80
21359;BME280;13506;50.852;20.632;2023-03-18T07:31:47;98536.91;;;3.99;45.67
21359;BME280;13506;50.852;20.632;2023-03-18T07:34:15;98547.00;;;4.24;45.46
21359;BME280;13506;50.852;20.632;2023-03-18T07:36:44;98546.91;;;4.28;45.68
21359;BME280;13506;50.852;20.632;2023-03-18T07:39:13;98545.53;;;4.58;45.07
21359;BME280;13506;50.852;20.632;2023-03-18T07:41:41;98546.41;;;4.78;43.77
21359;BME280;13506;50.852;20.632;2023-03-18T07:44:13;98561.50;;;4.49;43.68
21359;BME280;13506;50.852;20.632;2023-03-18T07:46:41;98557.03;;;5.48;42.79
21359;BME280;13506;50.852;20.632;2023-03-18T07:49:11;98565.94;;;5.42;42.19
21359;BME280;13506;50.852;20.632;2023-03-18T07:51:39;98558.59;;;5.33;41.72
21359;BME280;13506;50.852;20.632;2023-03-18T07:54:07;98555.69;;;5.39;41.88
21359;BME280;13506;50.852;20.632;2023-03-18T07:56:35;98557.44;;;5.38;41.71
21359;BME280;13506;50.852;20.632;2023-03-18T07:59:03;98552.44;;;5.87;41.90
21359;BME280;13506;50.852;20.632;2023-03-18T08:01:30;98548.84;;;6.58;40.75
21359;BME280;13506;50.852;20.632;2023-03-18T08:03:58;98554.03;;;6.58;39.91
21359;BME280;13506;50.852;20.632;2023-03-18T08:06:27;98557.06;;;6.33;40.81
21359;BME280;13506;50.852;20.632;2023-03-18T08:08:56;98560.72;;;6.13;40.50
21359;BME280;13506;50.852;20.632;2023-03-18T08:11:24;98549.28;;;6.33;40.55
21359;BME280;13506;50.852;20.632;2023-03-18T08:13:52;98544.03;;;6.51;40.77
21359;BME280;13506;50.852;20.632;2023-03-18T08:16:19;98558.25;;;6.10;39.97
21359;BME280;13506;50.852;20.632;2023-03-18T08:18:48;98561.31;;;6.01;40.65
21359;BME280;13506;50.852;20.632;2023-03-18T08:21:16;98549.59;;;6.60;40.70
21359;BME280;13506;50.852;20.632;2023-03-18T08:23:46;98554.53;;;6.98;39.46
21359;BME280;13506;50.852;20.632;2023-03-18T08:26:14;98551.66;;;7.19;38.53
21359;BME280;13506;50.852;20.632;2023-03-18T08:28:42;98558.66;;;7.18;39.27
21359;BME280;13506;50.852;20.632;2023-03-18T08:31:10;98560.19;;;7.06;38.95
21359;BME280;13506;50.852;20.632;2023-03-18T08:33:40;98551.88;;;7.62;38.89
21359;BME280;13506;50.852;20.632;2023-03-18T08:36:08;98552.34;;;7.22;38.20
21359;BME280;13506;50.852;20.632;2023-03-18T08:38:36;98548.25;;;7.18;38.97
21359;BME280;13506;50.852;20.632;2023-03-18T08:41:06;98540.91;;;7.87;37.53
21359;BME280;13506;50.852;20.632;2023-03-18T08:43:35;98552.03;;;7.59;37.77
21359;BME280;13506;50.852;20.632;2023-03-18T08:46:03;98560.59;;;7.15;38.00
21359;BME280;13506;50.852;20.632;2023-03-18T08:48:32;98542.78;;;7.23;38.08
21359;BME280;13506;50.852;20.632;2023-03-18T08:51:02;98542.97;;;7.66;38.15
21359;BME280;13506;50.852;20.632;2023-03-18T08:53:33;98543.03;;;8.25;37.09
21359;BME280;13506;50.852;20.632;2023-03-18T08:56:02;98544.66;;;8.42;36.64
21359;BME280;13506;50.852;20.632;2023-03-18T08:58:32;98542.38;;;8.93;35.93
21359;BME280;13506;50.852;20.632;2023-03-18T09:01:00;98546.06;;;8.17;37.12
21359;BME280;13506;50.852;20.632;2023-03-18T09:03:30;98560.47;;;8.39;37.00
21359;BME280;13506;50.852;20.632;2023-03-18T09:05:59;98550.41;;;8.47;37.46
21359;BME280;13506;50.852;20.632;2023-03-18T09:08:27;98545.53;;;8.84;35.97
21359;BME280;13506;50.852;20.632;2023-03-18T09:10:56;98541.50;;;8.35;36.64
21359;BME280;13506;50.852;20.632;2023-03-18T09:13:25;98543.13;;;8.52;37.35
21359;BME280;13506;50.852;20.632;2023-03-18T09:15:55;98541.78;;;8.30;37.21
21359;BME280;13506;50.852;20.632;2023-03-18T09:18:23;98537.31;;;7.74;38.21
21359;BME280;13506;50.852;20.632;2023-03-18T09:20:51;98544.25;;;8.03;38.59
21359;BME280;13506;50.852;20.632;2023-03-18T09:23:20;98542.00;;;8.70;37.83
21359;BME280;13506;50.852;20.632;2023-03-18T09:25:47;98536.41;;;8.91;37.37
21359;BME280;13506;50.852;20.632;2023-03-18T09:28:17;98541.38;;;9.50;36.17
21359;BME280;13506;50.852;20.632;2023-03-18T09:30:45;98530.31;;;9.86;35.20
21359;BME280;13506;50.852;20.632;2023-03-18T09:33:15;98541.84;;;10.09;35.63
21359;BME280;13506;50.852;20.632;2023-03-18T09:35:43;98533.03;;;9.98;34.37
21359;BME280;13506;50.852;20.632;2023-03-18T09:38:14;98533.50;;;10.43;35.64
21359;BME280;13506;50.852;20.632;2023-03-18T09:40:50;98538.34;;;9.96;35.04
21359;BME280;13506;50.852;20.632;2023-03-18T09:43:41;98538.69;;;10.17;35.70
21359;BME280;13506;50.852;20.632;2023-03-18T09:46:21;98543.22;;;10.41;35.44
21359;BME280;13506;50.852;20.632;2023-03-18T09:52:08;98538.69;;;10.04;35.61
21359;BME280;13506;50.852;20.632;2023-03-18T09:54:43;98532.06;;;10.75;34.65
21359;BME280;13506;50.852;20.632;2023-03-18T09:57:18;98534.59;;;10.00;33.78
21359;BME280;13506;50.852;20.632;2023-03-18T09:59:52;98528.44;;;10.01;35.47
21359;BME280;13506;50.852;20.632;2023-03-18T10:02:26;98515.38;;;10.27;36.22
21359;BME280;13506;50.852;20.632;2023-03-18T10:05:02;98527.81;;;9.70;35.72
21359;BME280;13506;50.852;20.632;2023-03-18T10:07:36;98531.09;;;9.47;36.61
21359;BME280;13506;50.852;20.632;2023-03-18T10:10:08;98538.75;;;9.23;36.93
21359;BME280;13506;50.852;20.632;2023-03-18T10:12:42;98528.72;;;9.02;36.81
21359;BME280;13506;50.852;20.632;2023-03-18T10:15:15;98542.09;;;8.83;37.19
21359;BME280;13506;50.852;20.632;2023-03-18T10:17:47;98533.94;;;9.02;36.19
21359;BME280;13506;50.852;20.632;2023-03-18T10:20:26;98539.97;;;9.44;36.51
21359;BME280;13506;50.852;20.632;2023-03-18T10:23:09;98529.22;;;9.76;35.48
21359;BME280;13506;50.852;20.632;2023-03-18T10:25:48;98522.16;;;10.42;35.56
21359;BME280;13506;50.852;20.632;2023-03-18T10:31:27;98527.56;;;11.51;34.33
21359;BME280;13506;50.852;20.632;2023-03-18T10:34:02;98519.56;;;11.88;32.74
21359;BME280;13506;50.852;20.632;2023-03-18T10:36:38;98527.44;;;12.24;32.89
21359;BME280;13506;50.852;20.632;2023-03-18T10:39:14;98516.13;;;11.99;32.13
21359;BME280;13506;50.852;20.632;2023-03-18T10:41:47;98505.16;;;12.29;32.12
21359;BME280;13506;50.852;20.632;2023-03-18T10:44:20;98510.63;;;12.71;31.47
21359;BME280;13506;50.852;20.632;2023-03-18T10:46:57;98501.75;;;13.06;31.33
21359;BME280;13506;50.852;20.632;2023-03-18T10:49:30;98509.84;;;12.13;32.31
21359;BME280;13506;50.852;20.632;2023-03-18T10:52:05;98507.75;;;12.74;31.04
21359;BME280;13506;50.852;20.632;2023-03-18T10:54:40;98503.19;;;12.88;30.61
21359;BME280;13506;50.852;20.632;2023-03-18T10:57:12;98489.34;;;12.86;31.17
21359;BME280;13506;50.852;20.632;2023-03-18T10:59:41;98514.28;;;11.18;32.29
21359;BME280;13506;50.852;20.632;2023-03-18T11:02:15;98493.03;;;12.15;32.26
21359;BME280;13506;50.852;20.632;2023-03-18T11:04:47;98500.50;;;11.86;32.47
21359;BME280;13506;50.852;20.632;2023-03-18T11:07:20;98489.44;;;11.47;32.74
21359;BME280;13506;50.852;20.632;2023-03-18T11:09:51;98489.63;;;11.09;33.53
21359;BME280;13506;50.852;20.632;2023-03-18T11:12:24;98489.38;;;11.12;33.47
21359;BME280;13506;50.852;20.632;2023-03-18T11:14:52;98483.06;;;11.14;33.55
21359;BME280;13506;50.852;20.632;2023-03-18T11:17:25;98486.44;;;11.04;33.24
21359;BME280;13506;50.852;20.632;2023-03-18T11:20:02;98466.16;;;11.78;32.93
21359;BME280;13506;50.852;20.632;2023-03-18T11:22:36;98475.91;;;11.65;32.80
21359;BME280;13506;50.852;20.632;2023-03-18T11:25:12;98473.50;;;11.26;32.37
21359;BME280;13506;50.852;20.632;2023-03-18T11:27:44;98474.09;;;11.54;32.87
21359;BME280;13506;50.852;20.632;2023-03-18T11:30:21;98476.38;;;11.10;33.72
21359;BME280;13506;50.852;20.632;2023-03-18T11:32:55;98466.47;;;11.27;33.67
21359;BME280;13506;50.852;20.632;2023-03-18T11:35:31;98471.50;;;11.65;32.69
21359;BME280;13506;50.852;20.632;2023-03-18T11:38:03;98464.66;;;11.98;32.69
21359;BME280;13506;50.852;20.632;2023-03-18T11:40:32;98458.00;;;11.59;32.15
21359;BME280;13506;50.852;20.632;2023-03-18T11:43:02;98472.03;;;11.46;32.42
21359;BME280;13506;50.852;20.632;2023-03-18T11:45:45;98447.22;;;11.28;33.29
21359;BME280;13506;50.852;20.632;2023-03-18T11:48:20;98456.63;;;11.30;32.97
21359;BME280;13506;50.852;20.632;2023-03-18T11:51:10;98455.97;;;11.15;33.38
21359;BME280;13506;50.852;20.632;2023-03-18T11:54:01;98448.28;;;10.64;33.79
21359;BME280;13506;50.852;20.632;2023-03-18T11:56:35;98442.84;;;10.54;33.89
21359;BME280;13506;50.852;20.632;2023-03-18T11:59:26;98450.03;;;11.01;34.30
21359;BME280;13506;50.852;20.632;2023-03-18T12:02:27;98448.34;;;11.00;32.65
21359;BME280;13506;50.852;20.632;2023-03-18T12:05:16;98443.72;;;11.63;32.71
21359;BME280;13506;50.852;20.632;2023-03-18T12:07:58;98447.66;;;11.22;33.57
21359;BME280;13506;50.852;20.632;2023-03-18T12:10:34;98448.81;;;10.93;33.24
21359;BME280;13506;50.852;20.632;2023-03-18T12:13:15;98439.03;;;10.71;33.49
21359;BME280;13506;50.852;20.632;2023-03-18T12:15:50;98436.94;;;10.77;34.26
21359;BME280;13506;50.852;20.632;2023-03-18T12:18:56;98438.31;;;11.06;33.89
21359;BME280;13506;50.852;20.632;2023-03-18T12:21:56;98426.47;;;11.25;33.46
21359;BME280;13506;50.852;20.632;2023-03-18T12:24:49;98430.31;;;10.47;34.37
21359;BME280;13506;50.852;20.632;2023-03-18T12:27:29;98423.44;;;10.70;33.82
21359;BME280;13506;50.852;20.632;2023-03-18T12:30:22;98423.84;;;10.77;33.11
21359;BME280;13506;50.852;20.632;2023-03-18T12:33:01;98429.78;;;10.79;32.94
21359;BME280;13506;50.852;20.632;2023-03-18T12:35:47;98420.66;;;10.84;33.64
21359;BME280;13506;50.852;20.632;2023-03-18T12:38:43;98428.84;;;11.04;33.66
21359;BME280;13506;50.852;20.632;2023-03-18T12:41:25;98417.88;;;11.23;32.97
21359;BME280;13506;50.852;20.632;2023-03-18T12:44:06;98415.78;;;11.28;33.43
21359;BME280;13506;50.852;20.632;2023-03-18T12:46:44;98417.88;;;11.23;34.26
21359;BME280;13506;50.852;20.632;2023-03-18T12:49:18;98421.53;;;11.44;33.19
21359;BME280;13506;50.852;20.632;2023-03-18T12:51:53;98413.72;;;11.78;31.53
21359;BME280;13506;50.852;20.632;2023-03-18T12:54:26;98411.75;;;12.15;31.35
21359;BME280;13506;50.852;20.632;2023-03-18T12:57:00;98415.31;;;12.03;31.22
21359;BME280;13506;50.852;20.632;2023-03-18T12:59:37;98420.19;;;11.96;32.08
21359;BME280;13506;50.852;20.632;2023-03-18T13:02:36;98417.41;;;11.18;32.91
21359;BME280;13506;50.852;20.632;2023-03-18T13:05:19;98417.34;;;11.42;33.37
21359;BME280;13506;50.852;20.632;2023-03-18T13:10:52;98409.91;;;10.76;33.24
21359;BME280;13506;50.852;20.632;2023-03-18T13:13:22;98428.97;;;10.78;33.94
21359;BME280;13506;50.852;20.632;2023-03-18T13:15:53;98409.56;;;10.81;33.45
21359;BME280;13506;50.852;20.632;2023-03-18T13:18:25;98416.75;;;10.29;33.40
21359;BME280;13506;50.852;20.632;2023-03-18T13:20:57;98414.75;;;10.69;34.42
21359;BME280;13506;50.852;20.632;2023-03-18T13:23:41;98413.63;;;10.61;33.14
21359;BME280;13506;50.852;20.632;2023-03-18T13:26:20;98401.53;;;10.84;33.22
21359;BME280;13506;50.852;20.632;2023-03-18T13:29:02;98400.94;;;10.67;33.83